Time;durP1;ratioP1;P1;durP2;ratioP2;P2;SDS_P1;SDS_P2;PMS_P1;PMS_P2;Temp;Humidity;BMP_temperature;BMP_pressure;BME280_temperature;BME280_humidity;BME280_pressure;Samples;Min_cycle;Max_cycle;Signal;HPM_P1;HPM_P2
2022/01/22 00:01:11;;;;;;;18.92;11.32;;;5.80;96.70;;;;;;5056885;28;20063;-78
2022/01/22 00:03:40;;;;;;;15.82;9.60;;;5.60;96.70;;;;;;5078763;28;20733;-78
2022/01/22 00:06:10;;;;;;;15.57;9.00;;;5.10;96.70;;;;;;5057732;28;20070;-79
2022/01/22 00:08:38;;;;;;;14.90;8.68;;;4.70;96.70;;;;;;5054042;28;20093;-78
2022/01/22 00:11:07;;;;;;;14.10;8.48;;;4.70;96.70;;;;;;5071015;28;20513;-78
2022/01/22 00:16:22;;;;;;;;;;;5.00;96.70;;;;;;5081364;28;20067;-79
2022/01/22 00:18:50;;;;;;;14.07;8.05;;;5.40;96.70;;;;;;5082013;28;19926;-79
2022/01/22 00:21:19;;;;;;;17.10;9.13;;;5.60;96.70;;;;;;5068835;28;20035;-79
2022/01/22 00:23:55;;;;;;;17.50;9.18;;;5.70;96.70;;;;;;5076298;28;20067;-78
2022/01/22 00:26:23;;;;;;;17.35;9.07;;;5.70;96.70;;;;;;5072295;28;20072;-79
2022/01/22 00:28:52;;;;;;;15.65;7.93;;;5.80;96.70;;;;;;5061734;28;20044;-79
2022/01/22 00:31:20;;;;;;;14.68;7.60;;;5.80;96.70;;;;;;5067187;28;20113;-79
2022/01/22 00:33:48;;;;;;;13.50;7.32;;;5.80;96.70;;;;;;5072303;28;20085;-78
2022/01/22 00:36:16;;;;;;;15.57;8.32;;;5.80;96.70;;;;;;5077092;28;20052;-79
2022/01/22 00:38:46;;;;;;;13.73;7.88;;;5.80;96.70;;;;;;5074891;28;20033;-79
2022/01/22 00:41:14;;;;;;;13.75;7.68;;;5.70;96.70;;;;;;5076103;28;20035;-79
2022/01/22 00:43:43;;;;;;;14.05;8.07;;;5.70;96.70;;;;;;5073651;28;20044;-79
2022/01/22 00:46:12;;;;;;;13.13;7.00;;;5.70;96.70;;;;;;5083246;28;20117;-79
2022/01/22 00:48:40;;;;;;;13.38;6.90;;;5.70;96.70;;;;;;5089865;28;20525;-79
2022/01/22 00:51:08;;;;;;;11.38;6.95;;;5.70;96.70;;;;;;5062609;28;20587;-79
2022/01/22 00:53:37;;;;;;;13.05;6.78;;;5.70;96.70;;;;;;5074064;28;20051;-79
2022/01/22 00:56:07;;;;;;;11.20;6.40;;;5.70;96.70;;;;;;5073992;28;20453;-79
2022/01/22 00:58:36;;;;;;;12.60;6.90;;;5.60;96.70;;;;;;5074577;28;20055;-79
2022/01/22 01:01:04;;;;;;;12.73;6.72;;;5.60;96.70;;;;;;5084864;28;20043;-79
2022/01/22 01:03:34;;;;;;;14.45;7.28;;;5.40;96.70;;;;;;5060052;28;20048;-77
2022/01/22 01:06:04;;;;;;;14.50;7.75;;;5.20;96.70;;;;;;5077622;28;20070;-79
2022/01/22 01:08:33;;;;;;;13.60;7.57;;;5.00;96.70;;;;;;5074796;28;20044;-78
2022/01/22 01:11:03;;;;;;;15.55;8.40;;;4.90;96.70;;;;;;5060838;28;20119;-79
2022/01/22 01:13:39;;;;;;;13.43;7.75;;;4.90;96.70;;;;;;5070082;28;20143;-79
2022/01/22 01:16:42;;;;;;;12.32;6.95;;;5.00;96.70;;;;;;5077681;28;20135;-79
2022/01/22 01:33:47;;;;;;;10.77;5.28;;;5.10;96.70;;;;;;5072482;28;20047;-78
2022/01/22 01:36:00;;;;;;;11.10;4.97;;;5.10;96.70;;;;;;5076385;28;20040;-78
2022/01/22 01:38:29;;;;;;;10.52;5.43;;;5.10;96.70;;;;;;5073870;28;20037;-78
2022/01/22 01:41:06;;;;;;;10.02;5.32;;;5.20;96.70;;;;;;5078896;28;20050;-78
2022/01/22 01:43:36;;;;;;;13.65;5.20;;;5.30;96.70;;;;;;5059543;28;20751;-78
2022/01/22 01:46:32;;;;;;;11.63;5.13;;;5.30;96.70;;;;;;5042665;28;20122;-78
2022/01/22 01:49:03;;;;;;;10.73;6.00;;;5.20;96.70;;;;;;5073892;28;20044;-78
2022/01/22 01:51:33;;;;;;;9.20;5.13;;;5.20;96.70;;;;;;5071595;28;20056;-78
2022/01/22 01:59:23;;;;;;;11.73;5.70;;;5.10;96.70;;;;;;5070722;28;20099;-78
2022/01/22 02:01:53;;;;;;;11.23;5.82;;;5.00;96.70;;;;;;5074204;28;20604;-78
2022/01/22 02:04:22;;;;;;;12.25;5.55;;;4.90;96.70;;;;;;5072070;28;20132;-78
2022/01/22 02:06:50;;;;;;;10.15;5.15;;;4.90;96.70;;;;;;5073813;28;20052;-78
2022/01/22 02:09:21;;;;;;;11.55;6.18;;;4.80;96.70;;;;;;5074223;28;20486;-78
2022/01/22 02:12:05;;;;;;;12.73;6.72;;;4.80;96.70;;;;;;5057656;28;20451;-78
2022/01/22 02:23:45;;;;;;;16.33;6.22;;;4.60;96.70;;;;;;5070120;28;20131;-78
2022/01/22 02:26:15;;;;;;;10.95;5.95;;;4.70;96.70;;;;;;5074363;28;20043;-78
2022/01/22 02:28:48;;;;;;;11.82;6.38;;;4.70;96.70;;;;;;5062548;28;20056;-78
2022/01/22 02:31:33;;;;;;;9.63;5.68;;;4.60;96.70;;;;;;5071902;28;20048;-77
2022/01/22 02:36:40;;;;;;;11.50;5.43;;;4.50;96.70;;;;;;5076733;28;20037;-78
2022/01/22 02:39:18;;;;;;;10.77;5.60;;;4.50;96.70;;;;;;5082404;28;20032;-78
2022/01/22 02:41:50;;;;;;;10.50;6.45;;;4.50;96.70;;;;;;5068895;28;20047;-78
2022/01/22 02:44:33;;;;;;;12.68;6.78;;;4.30;96.70;;;;;;5053645;28;20438;-78
2022/01/22 02:47:07;;;;;;;10.98;5.50;;;4.30;96.70;;;;;;5078081;28;20113;-78
2022/01/22 02:49:37;;;;;;;10.57;6.55;;;4.30;96.70;;;;;;5080215;28;20292;-78
2022/01/22 02:52:10;;;;;;;14.07;7.63;;;4.20;96.70;;;;;;5073432;28;20059;-78
2022/01/22 02:54:44;;;;;;;14.32;7.65;;;4.20;96.70;;;;;;5055111;28;20036;-78
2022/01/22 02:57:13;;;;;;;14.63;7.25;;;4.20;96.70;;;;;;5070847;28;20468;-77
2022/01/22 02:59:46;;;;;;;12.23;6.60;;;4.30;96.70;;;;;;5058388;28;20044;-78
2022/01/22 03:02:15;;;;;;;8.55;5.55;;;4.30;96.70;;;;;;5074066;28;20166;-78
2022/01/22 03:04:45;;;;;;;10.07;6.15;;;4.40;96.70;;;;;;5075180;28;20974;-78
2022/01/22 03:07:13;;;;;;;13.52;6.22;;;4.40;96.70;;;;;;5073344;28;20249;-78
2022/01/22 03:09:46;;;;;;;10.23;5.50;;;4.30;96.70;;;;;;5058742;28;20041;-78
2022/01/22 03:12:47;;;;;;;10.10;5.43;;;4.10;96.70;;;;;;5083000;28;20126;-78
2022/01/22 03:18:04;;;;;;;11.02;4.97;;;3.70;96.70;;;;;;5073102;28;20495;-78
2022/01/22 03:29:09;;;;;;;14.07;6.88;;;4.10;96.70;;;;;;5075685;28;20053;-78
2022/01/22 03:31:38;;;;;;;9.90;6.03;;;4.20;96.70;;;;;;5078686;28;20497;-78
2022/01/22 03:34:06;;;;;;;11.32;6.47;;;4.20;96.70;;;;;;5051648;28;20430;-77
2022/01/22 03:36:35;;;;;;;9.77;6.35;;;4.30;96.70;;;;;;5076166;28;20513;-78
2022/01/22 03:39:07;;;;;;;13.68;6.40;;;4.30;96.70;;;;;;5075392;28;20044;-78
2022/01/22 03:41:37;;;;;;;9.45;5.07;;;4.20;96.70;;;;;;5070813;28;20051;-76
2022/01/22 03:44:08;;;;;;;11.77;5.90;;;4.10;96.70;;;;;;5068835;28;20048;-78
2022/01/22 03:46:38;;;;;;;9.52;5.30;;;4.00;96.70;;;;;;5079172;28;20076;-78
2022/01/22 03:49:10;;;;;;;10.55;6.35;;;3.90;96.70;;;;;;5075572;28;20110;-77
2022/01/22 03:51:39;;;;;;;11.40;5.72;;;3.90;96.70;;;;;;5071094;28;20067;-78
2022/01/22 03:54:07;;;;;;;12.23;6.38;;;3.90;96.70;;;;;;5074721;28;20582;-78
2022/01/22 03:56:45;;;;;;;10.30;5.97;;;3.80;96.70;;;;;;5069622;28;20062;-78
2022/01/22 03:59:22;;;;;;;10.50;5.45;;;3.80;96.70;;;;;;5072476;28;20033;-78
2022/01/22 04:05:02;;;;;;;8.98;5.20;;;3.60;96.70;;;;;;5075470;28;20036;-78
2022/01/22 04:10:02;;;;;;;11.27;5.45;;;3.80;96.70;;;;;;5077135;28;20512;-76
2022/01/22 04:12:43;;;;;;;9.98;5.78;;;3.80;96.70;;;;;;5077228;28;20047;-78
2022/01/22 04:15:14;;;;;;;10.27;5.60;;;3.90;96.70;;;;;;5067686;28;20040;-78
2022/01/22 04:26:13;;;;;;;12.68;5.35;;;3.60;96.70;;;;;;5076010;28;20047;-78
2022/01/22 04:28:42;;;;;;;11.10;5.93;;;3.60;96.70;;;;;;5074636;28;20053;-78
2022/01/22 04:31:11;;;;;;;9.93;5.55;;;3.70;96.70;;;;;;5077768;28;20044;-78
2022/01/22 04:33:39;;;;;;;10.40;5.25;;;3.60;96.70;;;;;;5062555;28;20044;-78
2022/01/22 04:36:07;;;;;;;11.65;5.75;;;3.50;96.70;;;;;;5059007;28;20043;-77
2022/01/22 04:38:35;;;;;;;10.32;5.55;;;3.60;96.70;;;;;;5062027;28;20399;-78
2022/01/22 04:41:04;;;;;;;10.95;4.78;;;3.80;96.70;;;;;;5072963;28;20124;-77
2022/01/22 04:43:36;;;;;;;10.32;5.43;;;3.70;96.70;;;;;;5080901;28;20101;-78
2022/01/22 04:46:26;;;;;;;10.63;5.05;;;3.70;96.70;;;;;;5073545;28;20578;-77
2022/01/22 04:49:09;;;;;;;9.15;5.30;;;3.60;96.70;;;;;;5067209;28;20044;-78
2022/01/22 04:57:20;;;;;;;8.75;5.07;;;3.30;96.70;;;;;;5079670;28;20040;-77
2022/01/22 04:59:48;;;;;;;10.23;4.32;;;3.20;96.70;;;;;;5054967;28;20154;-78
2022/01/22 05:02:18;;;;;;;11.50;5.15;;;3.30;96.70;;;;;;5071460;28;20041;-78
2022/01/22 05:05:02;;;;;;;9.07;5.07;;;3.30;96.70;;;;;;5070109;28;20051;-78
2022/01/22 05:07:46;;;;;;;9.00;5.32;;;3.30;96.70;;;;;;5079109;28;20043;-78
2022/01/22 05:10:19;;;;;;;10.02;5.75;;;3.30;96.70;;;;;;5071933;28;20125;-78
2022/01/22 05:12:47;;;;;;;10.70;5.82;;;3.20;96.70;;;;;;5058059;28;20513;-78
2022/01/22 05:15:17;;;;;;;10.25;5.18;;;3.10;96.70;;;;;;5075901;28;20032;-77
2022/01/22 05:17:47;;;;;;;9.00;5.22;;;3.20;96.70;;;;;;5061267;28;20554;-77
2022/01/22 05:20:27;;;;;;;10.05;5.75;;;3.10;96.70;;;;;;5053608;28;20037;-78
2022/01/22 05:25:43;;;;;;;11.00;6.35;;;3.00;96.70;;;;;;5074161;28;20185;-78
2022/01/22 05:29:01;;;;;;;13.10;6.55;;;3.10;96.70;;;;;;5072933;28;20178;-78
2022/01/22 05:31:42;;;;;;;11.18;6.05;;;3.00;96.70;;;;;;5075915;28;20052;-78
2022/01/22 05:37:41;;;;;;;10.48;5.45;;;2.70;96.70;;;;;;5068996;28;20052;-77
2022/01/22 05:40:10;;;;;;;9.25;5.40;;;2.80;96.70;;;;;;5077669;28;20432;-78
2022/01/22 05:42:38;;;;;;;9.18;5.35;;;2.80;96.70;;;;;;5076936;28;20494;-78
2022/01/22 05:45:07;;;;;;;10.40;5.72;;;2.90;96.70;;;;;;5051255;28;20478;-78
2022/01/22 05:47:36;;;;;;;10.02;5.22;;;3.00;96.70;;;;;;5076155;28;20045;-77
2022/01/22 05:50:13;;;;;;;9.48;5.07;;;3.00;96.70;;;;;;5079130;28;20148;-78
2022/01/22 05:52:54;;;;;;;10.15;5.97;;;2.90;96.70;;;;;;5069156;28;20044;-78
2022/01/22 05:59:36;;;;;;;10.02;5.75;;;3.00;96.70;;;;;;5074713;28;20037;-78
2022/01/22 06:01:08;;;;;;;9.32;5.28;;;3.10;96.70;;;;;;5076429;28;20202;-78
2022/01/22 06:03:58;;;;;;;11.77;5.80;;;3.10;96.70;;;;;;5068971;28;20048;-78
2022/01/22 06:06:28;;;;;;;12.15;6.22;;;3.00;96.70;;;;;;5079271;28;20067;-77
2022/01/22 06:08:58;;;;;;;13.13;6.47;;;2.90;96.70;;;;;;5073366;28;20048;-78
2022/01/22 06:11:36;;;;;;;11.45;5.97;;;2.90;96.70;;;;;;5053522;28;20524;-78
2022/01/22 06:14:06;;;;;;;12.73;6.53;;;3.00;96.70;;;;;;5080825;28;20065;-78
2022/01/22 06:16:40;;;;;;;10.98;5.78;;;2.80;96.70;;;;;;5059715;28;20055;-78
2022/01/22 06:19:34;;;;;;;11.52;6.22;;;2.70;96.70;;;;;;5070337;28;20056;-78
2022/01/22 06:22:05;;;;;;;11.77;5.55;;;2.70;96.70;;;;;;5054886;28;20044;-77
2022/01/22 06:24:34;;;;;;;12.90;6.60;;;2.80;96.70;;;;;;5081476;28;21991;-78
2022/01/22 06:27:06;;;;;;;10.23;5.80;;;2.90;96.70;;;;;;5070454;28;20137;-78
2022/01/22 06:29:34;;;;;;;13.02;6.57;;;2.80;96.70;;;;;;5074031;28;20049;-78
2022/01/22 06:32:05;;;;;;;11.00;6.32;;;2.90;96.70;;;;;;5077642;28;20481;-77
2022/01/22 06:34:36;;;;;;;10.10;5.47;;;2.90;96.70;;;;;;5077043;28;20060;-78
2022/01/22 06:37:06;;;;;;;7.80;4.68;;;2.80;96.70;;;;;;5070701;28;20047;-78
2022/01/22 06:42:52;;;;;;;7.70;4.30;;;2.70;96.70;;;;;;5078187;28;20511;-77
2022/01/22 06:45:35;;;;;;;7.03;4.05;;;2.80;96.70;;;;;;5072332;28;20060;-77
2022/01/22 06:48:10;;;;;;;6.75;3.90;;;2.70;96.70;;;;;;5068542;28;20568;-78
2022/01/22 06:51:04;;;;;;;7.93;4.40;;;2.70;96.70;;;;;;5074036;28;20044;-78
2022/01/22 06:53:40;;;;;;;8.88;4.05;;;2.60;96.70;;;;;;5062092;28;20047;-78
2022/01/22 06:56:19;;;;;;;9.05;4.53;;;2.70;96.70;;;;;;5079414;28;20423;-79
2022/01/22 06:59:06;;;;;;;8.73;4.45;;;2.80;96.70;;;;;;5058253;28;20075;-77
2022/01/22 07:01:34;;;;;;;11.00;4.85;;;2.70;96.70;;;;;;5074421;28;20043;-77
2022/01/22 07:04:08;;;;;;;9.13;4.80;;;2.60;96.70;;;;;;5072685;28;20119;-77
2022/01/22 07:06:59;;;;;;;9.95;4.85;;;2.70;96.70;;;;;;5074377;28;20531;-79
2022/01/22 07:09:32;;;;;;;12.65;5.15;;;2.70;96.70;;;;;;5073485;28;20050;-83
2022/01/22 07:12:00;;;;;;;7.85;4.15;;;2.70;96.70;;;;;;5076658;28;20127;-81
2022/01/22 07:14:29;;;;;;;9.88;5.25;;;2.80;96.70;;;;;;5056399;28;20044;-79
2022/01/22 07:16:57;;;;;;;8.80;4.80;;;2.80;96.70;;;;;;5074202;28;20064;-80
2022/01/22 07:19:40;;;;;;;10.73;5.10;;;2.80;96.70;;;;;;5067465;28;20047;-80
2022/01/22 07:22:35;;;;;;;9.82;4.75;;;3.00;96.70;;;;;;5064895;28;20047;-79
2022/01/22 07:25:15;;;;;;;9.80;4.47;;;3.00;96.70;;;;;;5066446;28;20089;-81
2022/01/22 07:27:43;;;;;;;6.88;4.22;;;3.00;96.70;;;;;;5082750;28;20043;-82
2022/01/22 07:30:12;;;;;;;9.48;4.15;;;3.00;96.70;;;;;;5078537;28;20048;-84
2022/01/22 07:32:43;;;;;;;7.15;4.60;;;3.00;96.70;;;;;;5063214;28;20047;-78
2022/01/22 07:35:14;;;;;;;15.30;8.45;;;3.00;96.70;;;;;;5055187;28;20087;-80
2022/01/22 07:37:43;;;;;;;10.18;5.65;;;3.10;96.70;;;;;;5078499;28;20045;-80
2022/01/22 07:40:21;;;;;;;9.13;4.73;;;2.90;96.70;;;;;;5080109;28;20063;-81
2022/01/22 07:42:55;;;;;;;9.07;5.22;;;2.90;96.70;;;;;;5055681;28;20044;-80
2022/01/22 07:45:41;;;;;;;9.57;4.57;;;3.00;96.70;;;;;;5084188;28;20067;-80
2022/01/22 07:48:16;;;;;;;9.20;4.72;;;2.90;96.70;;;;;;5073698;28;20051;-81
2022/01/22 07:51:04;;;;;;;10.07;4.90;;;3.00;96.70;;;;;;5080510;28;20116;-81
2022/01/22 07:53:32;;;;;;;9.85;5.78;;;3.10;96.70;;;;;;5082510;28;20044;-82
2022/01/22 07:56:07;;;;;;;8.63;4.78;;;3.30;96.70;;;;;;5066323;28;20035;-81
2022/01/22 07:58:37;;;;;;;11.00;5.65;;;3.30;96.70;;;;;;5082531;28;20042;-81
2022/01/22 08:01:05;;;;;;;9.45;5.38;;;3.20;96.70;;;;;;5078588;28;20036;-80
2022/01/22 08:03:54;;;;;;;8.63;5.20;;;3.20;96.70;;;;;;5077362;28;20044;-82
2022/01/22 08:06:41;;;;;;;9.18;5.47;;;3.30;96.70;;;;;;5080269;28;20087;-78
2022/01/22 08:09:27;;;;;;;9.85;5.32;;;3.30;96.70;;;;;;5078959;28;20058;-78
2022/01/22 08:12:15;;;;;;;10.13;5.35;;;3.40;96.70;;;;;;5077752;28;20050;-77
2022/01/22 08:14:44;;;;;;;15.40;6.28;;;3.30;96.70;;;;;;5070308;28;20461;-77
2022/01/22 08:17:12;;;;;;;9.68;5.72;;;3.30;96.70;;;;;;5077020;28;20105;-77
2022/01/22 08:19:41;;;;;;;10.48;5.93;;;3.30;96.70;;;;;;5079677;28;20052;-78
2022/01/22 08:22:34;;;;;;;14.10;6.22;;;3.40;96.70;;;;;;5075357;28;20044;-77
2022/01/22 08:25:35;;;;;;;9.57;5.40;;;3.60;96.70;;;;;;5025845;28;20085;-81
2022/01/22 08:36:57;;;;;;;15.70;8.30;;;3.60;96.70;;;;;;5077785;28;20078;-78
2022/01/22 08:39:26;;;;;;;15.45;7.88;;;3.70;96.70;;;;;;5079917;28;20048;-77
2022/01/22 08:41:56;;;;;;;13.30;8.18;;;3.80;96.70;;;;;;5075214;28;20405;-78
2022/01/22 08:44:26;;;;;;;15.75;8.77;;;3.90;96.70;;;;;;5061086;28;20045;-78
2022/01/22 08:46:56;;;;;;;16.48;8.65;;;4.00;96.70;;;;;;5074444;28;20232;-78
2022/01/22 08:49:28;;;;;;;13.60;7.93;;;3.90;96.70;;;;;;5074497;28;20041;-78
2022/01/22 08:52:04;;;;;;;14.95;7.97;;;4.00;96.70;;;;;;5071495;28;20059;-78
2022/01/22 08:54:32;;;;;;;16.90;8.13;;;4.10;96.70;;;;;;5078435;28;20052;-80
2022/01/22 08:57:01;;;;;;;15.55;8.20;;;4.10;96.70;;;;;;5061949;28;20044;-80
2022/01/22 08:59:31;;;;;;;16.88;9.75;;;4.10;96.70;;;;;;5062235;28;20138;-81
2022/01/22 09:02:05;;;;;;;17.15;10.80;;;4.20;96.70;;;;;;5074481;28;20765;-79
2022/01/22 09:05:00;;;;;;;21.50;11.73;;;4.20;96.70;;;;;;5044693;28;20044;-78
2022/01/22 09:07:45;;;;;;;17.05;9.95;;;4.40;96.70;;;;;;4860046;28;21003;-79
2022/01/22 09:10:32;;;;;;;16.05;9.13;;;4.50;96.70;;;;;;4969695;28;20057;-79
2022/01/22 09:13:08;;;;;;;16.05;8.25;;;4.60;96.70;;;;;;4967571;28;20165;-79
2022/01/22 09:15:44;;;;;;;14.32;8.52;;;4.80;96.70;;;;;;4839718;28;94757;-77
2022/01/22 09:18:12;;;;;;;17.77;9.13;;;5.00;96.70;;;;;;5006724;28;20287;-78
2022/01/22 09:23:12;;;;;;;11.93;7.38;;;5.20;96.70;;;;;;5022261;28;20049;-77
2022/01/22 09:25:49;;;;;;;11.05;6.53;;;5.20;96.70;;;;;;5005411;28;20132;-78
2022/01/22 09:28:19;;;;;;;12.13;7.22;;;5.20;96.70;;;;;;5018239;28;20073;-78
2022/01/22 09:30:53;;;;;;;12.00;6.93;;;5.30;96.70;;;;;;5006336;28;20057;-77
2022/01/22 09:33:22;;;;;;;13.27;6.22;;;5.30;96.70;;;;;;5003313;28;20570;-78
2022/01/22 09:36:13;;;;;;;8.88;5.30;;;5.40;96.70;;;;;;5004939;28;20402;-79
2022/01/22 09:39:13;;;;;;;10.10;5.50;;;5.50;96.70;;;;;;5002903;28;20052;-77
2022/01/22 09:42:04;;;;;;;9.70;5.40;;;5.60;96.70;;;;;;5010654;28;20098;-78
2022/01/22 09:44:33;;;;;;;8.23;5.18;;;5.70;96.70;;;;;;5039725;28;20057;-79
2022/01/22 09:47:26;;;;;;;7.82;5.15;;;5.80;96.70;;;;;;5041947;28;20564;-79
2022/01/22 09:50:29;;;;;;;8.75;5.22;;;6.00;96.70;;;;;;5006182;28;20678;-79
2022/01/22 09:53:27;;;;;;;10.30;5.47;;;6.10;96.70;;;;;;5004597;28;20108;-79
2022/01/22 09:56:27;;;;;;;9.02;4.65;;;6.20;96.70;;;;;;5019270;28;20604;-80
2022/01/22 09:59:14;;;;;;;9.32;5.18;;;6.30;96.70;;;;;;5018400;28;20048;-80
2022/01/22 10:02:11;;;;;;;7.82;4.80;;;6.40;96.70;;;;;;4980598;28;20053;-80
2022/01/22 10:04:45;;;;;;;10.95;5.55;;;6.50;96.70;;;;;;5004699;28;20076;-83
2022/01/22 10:07:52;;;;;;;9.55;4.80;;;6.50;96.70;;;;;;4961733;28;20051;-86
2022/01/22 10:10:48;;;;;;;18.13;10.35;;;6.60;96.70;;;;;;4938292;28;20051;-80
2022/01/22 10:13:41;;;;;;;13.18;7.70;;;6.70;96.70;;;;;;4959976;28;20047;-81
2022/01/22 10:16:21;;;;;;;14.93;8.50;;;6.80;96.70;;;;;;4953169;28;20138;-80
2022/01/22 10:19:11;;;;;;;13.15;7.70;;;6.90;96.70;;;;;;4960016;28;20157;-77
2022/01/22 10:21:43;;;;;;;11.90;6.68;;;7.00;96.70;;;;;;4958431;28;20083;-77
2022/01/22 10:24:31;;;;;;;9.00;5.80;;;7.10;96.70;;;;;;4960925;28;20110;-76
2022/01/22 10:27:21;;;;;;;8.88;5.65;;;7.20;96.70;;;;;;4975858;28;20177;-76
2022/01/22 10:29:53;;;;;;;7.90;4.85;;;7.30;96.70;;;;;;5002156;28;20570;-75
2022/01/22 10:32:28;;;;;;;7.13;4.65;;;7.30;96.70;;;;;;4997091;28;20171;-77
2022/01/22 10:35:17;;;;;;;8.63;5.40;;;7.30;96.70;;;;;;4986468;28;20065;-77
2022/01/22 10:38:41;;;;;;;7.85;4.90;;;7.40;96.70;;;;;;4998478;28;21040;-79
2022/01/22 10:41:10;;;;;;;8.93;5.15;;;7.50;96.70;;;;;;5006676;28;20044;-79
2022/01/22 10:43:43;;;;;;;6.65;4.25;;;7.50;96.70;;;;;;5047506;28;20531;-79
2022/01/22 10:48:43;;;;;;;6.75;4.07;;;7.80;96.70;;;;;;5042739;28;20613;-81
2022/01/22 10:51:15;;;;;;;11.40;5.28;;;7.80;96.70;;;;;;5041959;28;20047;-80
2022/01/22 10:53:49;;;;;;;9.52;5.32;;;8.00;96.70;;;;;;5048149;28;20036;-79
2022/01/22 10:56:19;;;;;;;9.82;5.63;;;8.00;96.70;;;;;;5055379;28;20143;-79
2022/01/22 10:58:56;;;;;;;9.93;5.40;;;8.10;96.70;;;;;;5058646;28;20052;-79
2022/01/22 11:01:27;;;;;;;10.30;6.25;;;8.10;96.70;;;;;;5040563;28;20522;-80
2022/01/22 11:04:08;;;;;;;8.65;5.63;;;8.20;96.70;;;;;;5029720;28;20122;-79
2022/01/22 11:06:39;;;;;;;6.90;5.05;;;8.30;96.70;;;;;;5028751;28;20497;-79
2022/01/22 11:09:10;;;;;;;9.63;5.43;;;8.40;96.70;;;;;;5029879;28;20064;-80
2022/01/22 11:11:41;;;;;;;8.48;5.53;;;8.40;96.70;;;;;;5042920;28;20118;-78
2022/01/22 11:14:11;;;;;;;9.38;5.82;;;8.50;96.70;;;;;;5040259;28;20036;-78
2022/01/22 11:16:42;;;;;;;9.48;6.22;;;8.60;96.70;;;;;;5037385;28;20132;-80
2022/01/22 11:19:19;;;;;;;12.00;6.50;;;8.80;96.70;;;;;;5022881;28;20198;-79
2022/01/22 11:21:49;;;;;;;9.68;6.03;;;8.90;96.70;;;;;;5044219;28;20041;-78
2022/01/22 11:24:22;;;;;;;8.60;5.35;;;8.90;96.70;;;;;;5041276;28;20055;-79
2022/01/22 11:26:52;;;;;;;9.95;5.88;;;9.00;96.70;;;;;;5043448;28;20450;-79
2022/01/22 11:29:24;;;;;;;8.85;5.50;;;9.00;96.70;;;;;;5061619;28;20049;-77
2022/01/22 11:32:00;;;;;;;9.25;5.90;;;9.00;96.70;;;;;;5046948;28;20059;-78
2022/01/22 11:34:32;;;;;;;8.38;5.38;;;9.00;96.70;;;;;;5039810;28;20069;-80
2022/01/22 11:37:07;;;;;;;9.65;6.03;;;9.20;96.70;;;;;;5044953;28;20033;-79
2022/01/22 11:39:37;;;;;;;9.43;5.85;;;9.30;96.70;;;;;;5023480;28;20060;-80
2022/01/22 11:42:06;;;;;;;10.90;6.72;;;9.40;96.70;;;;;;5049959;28;20048;-81
2022/01/22 11:45:01;;;;;;;14.30;8.60;;;9.50;96.70;;;;;;5044055;28;20321;-81
2022/01/22 11:47:29;;;;;;;11.18;6.50;;;9.60;96.70;;;;;;5025595;28;20603;-81
2022/01/22 11:50:06;;;;;;;10.85;8.07;;;9.50;96.70;;;;;;5024425;28;20048;-81
2022/01/22 11:52:38;;;;;;;10.30;5.97;;;9.60;96.70;;;;;;5060349;28;20520;-80
2022/01/22 11:55:13;;;;;;;7.88;5.75;;;9.70;96.70;;;;;;5026690;28;20051;-80
2022/01/22 11:57:42;;;;;;;9.98;6.78;;;9.60;96.70;;;;;;5040262;28;20167;-75
2022/01/22 12:00:22;;;;;;;8.05;5.38;;;9.70;96.70;;;;;;5045138;28;20128;-75
2022/01/22 12:03:18;;;;;;;8.95;6.10;;;9.80;96.70;;;;;;5037640;28;20144;-80
2022/01/22 12:06:10;;;;;;;9.38;4.57;;;9.90;96.70;;;;;;5041902;28;20061;-79
2022/01/22 12:09:05;;;;;;;6.43;4.82;;;10.20;96.70;;;;;;5038772;28;20075;-80
2022/01/22 12:14:51;;;;;;;5.80;3.83;;;10.40;96.70;;;;;;5061634;28;20049;-82
2022/01/22 12:17:40;;;;;;;7.30;5.15;;;10.60;96.70;;;;;;5042320;28;20453;-82
2022/01/22 12:23:18;;;;;;;8.73;6.05;;;10.70;96.70;;;;;;5039918;28;20120;-83
2022/01/22 12:25:50;;;;;;;8.73;6.28;;;10.80;96.70;;;;;;5041440;28;20049;-82
2022/01/22 12:28:38;;;;;;;8.52;5.22;;;10.90;96.70;;;;;;5041548;28;20145;-82
2022/01/22 12:31:08;;;;;;;7.60;4.93;;;11.00;96.70;;;;;;5040768;28;20048;-83
2022/01/22 12:33:48;;;;;;;7.60;5.20;;;11.00;96.70;;;;;;5046602;28;20450;-84
2022/01/22 12:36:22;;;;;;;6.63;4.13;;;11.10;96.70;;;;;;5066080;28;20341;-82
2022/01/22 12:39:05;;;;;;;6.15;4.18;;;11.10;96.70;;;;;;5048886;28;20033;-83
2022/01/22 12:44:14;;;;;;;7.45;3.30;;;11.10;96.70;;;;;;5042772;28;20095;-83
2022/01/22 12:46:51;;;;;;;4.35;3.05;;;11.10;95.90;;;;;;5043983;28;20327;-81
2022/01/22 12:49:22;;;;;;;8.45;3.13;;;11.30;96.50;;;;;;5061215;28;20029;-82
2022/01/22 12:51:54;;;;;;;7.85;3.80;;;11.30;96.00;;;;;;5046663;28;20040;-82
2022/01/22 12:54:27;;;;;;;5.20;3.20;;;11.50;96.70;;;;;;5044718;28;20037;-82
2022/01/22 12:57:06;;;;;;;8.05;3.35;;;11.50;95.20;;;;;;5045376;28;20133;-82
2022/01/22 12:59:49;;;;;;;6.35;3.08;;;11.40;96.10;;;;;;5037462;28;20055;-81
2022/01/22 13:02:34;;;;;;;5.05;3.00;;;11.40;96.70;;;;;;5045404;28;20107;-82
2022/01/22 13:05:04;;;;;;;5.80;3.05;;;11.40;96.70;;;;;;5044710;28;20116;-82
2022/01/22 13:07:53;;;;;;;5.63;3.35;;;11.50;96.70;;;;;;5059837;28;20049;-82
2022/01/22 13:10:44;;;;;;;5.32;3.67;;;11.50;96.70;;;;;;5044418;28;20596;-81
2022/01/22 13:13:17;;;;;;;7.07;3.63;;;11.40;96.70;;;;;;5049064;28;20079;-80
2022/01/22 13:15:59;;;;;;;5.55;3.40;;;11.40;96.70;;;;;;5058710;28;20139;-83
2022/01/22 13:18:43;;;;;;;6.78;3.47;;;11.50;96.70;;;;;;5065320;28;20493;-83
2022/01/22 13:21:13;;;;;;;5.95;3.75;;;11.40;96.70;;;;;;5051539;28;20528;-84
2022/01/22 13:23:42;;;;;;;4.85;3.55;;;11.40;96.70;;;;;;5046852;28;20494;-83
2022/01/22 13:26:11;;;;;;;5.75;3.70;;;11.40;96.70;;;;;;5043751;28;20082;-81
2022/01/22 13:28:40;;;;;;;4.60;3.05;;;11.50;96.70;;;;;;5045140;28;20052;-83
2022/01/22 13:31:16;;;;;;;6.50;3.80;;;11.50;96.70;;;;;;5029957;28;20037;-82
2022/01/22 13:47:45;;;;;;;4.00;3.20;;;11.70;96.70;;;;;;5040013;28;20071;-79
2022/01/22 13:50:14;;;;;;;7.13;3.58;;;11.80;96.70;;;;;;5040001;28;20359;-82
2022/01/22 13:52:44;;;;;;;6.40;3.00;;;11.70;96.70;;;;;;5038980;28;20558;-82
2022/01/22 13:55:14;;;;;;;5.07;3.25;;;11.70;96.70;;;;;;5039183;28;20584;-80
2022/01/22 13:57:44;;;;;;;9.43;4.22;;;11.70;96.70;;;;;;5026120;28;20045;-81
2022/01/22 14:00:15;;;;;;;6.78;3.70;;;11.60;96.70;;;;;;5039174;28;20052;-80
2022/01/22 14:03:28;;;;;;;6.47;3.60;;;11.50;96.70;;;;;;5039329;28;20069;-82
2022/01/22 14:06:01;;;;;;;5.68;3.72;;;11.40;96.70;;;;;;5038932;28;20446;-82
2022/01/22 14:08:34;;;;;;;8.32;5.43;;;11.30;96.70;;;;;;5039564;28;20147;-80
2022/01/22 14:11:04;;;;;;;6.70;4.10;;;11.00;96.70;;;;;;5040473;28;20056;-84
2022/01/22 14:13:33;;;;;;;8.65;4.30;;;11.00;96.70;;;;;;5022681;28;20637;-82
2022/01/22 14:16:15;;;;;;;6.55;3.30;;;10.90;96.70;;;;;;5044509;28;20060;-82
2022/01/22 14:18:47;;;;;;;10.18;5.45;;;10.80;96.70;;;;;;5044734;28;20040;-83
2022/01/22 14:21:20;;;;;;;7.72;4.22;;;10.80;96.70;;;;;;5029299;28;20055;-83
2022/01/22 14:23:52;;;;;;;6.65;4.97;;;10.70;96.70;;;;;;5047250;28;20047;-79
2022/01/22 14:26:28;;;;;;;7.25;4.63;;;10.70;96.70;;;;;;5039331;28;20092;-81
2022/01/22 14:28:58;;;;;;;8.05;4.55;;;10.70;96.70;;;;;;5047964;28;20099;-81
2022/01/22 14:31:29;;;;;;;6.88;4.63;;;10.70;96.70;;;;;;5041275;28;20037;-83
2022/01/22 14:34:00;;;;;;;8.25;4.65;;;10.70;96.70;;;;;;5055981;28;20040;-79
2022/01/22 14:36:33;;;;;;;7.88;4.45;;;10.70;96.70;;;;;;5025078;28;20045;-79
2022/01/22 14:39:13;;;;;;;7.95;3.70;;;10.70;96.70;;;;;;5050067;28;20048;-79
2022/01/22 14:44:40;;;;;;;5.78;3.45;;;10.60;96.70;;;;;;5042998;28;20423;-79
2022/01/22 14:47:13;;;;;;;6.43;3.58;;;10.60;96.70;;;;;;5039486;28;20510;-80
2022/01/22 14:49:49;;;;;;;8.68;4.53;;;10.60;96.70;;;;;;5039775;28;20048;-81
2022/01/22 14:52:19;;;;;;;5.35;3.83;;;10.60;96.70;;;;;;5048858;28;20049;-79
2022/01/22 14:54:49;;;;;;;7.18;3.70;;;10.60;96.70;;;;;;5028684;28;20045;-78
2022/01/22 14:57:21;;;;;;;6.45;4.05;;;10.50;96.70;;;;;;5043367;28;20086;-78
2022/01/22 14:59:50;;;;;;;4.60;2.63;;;10.60;96.70;;;;;;5050044;28;20037;-79
2022/01/22 15:02:19;;;;;;;3.88;2.38;;;10.50;96.70;;;;;;5062912;28;20503;-79
2022/01/22 15:04:52;;;;;;;4.55;2.45;;;10.50;96.70;;;;;;5042673;28;20045;-80
2022/01/22 15:07:22;;;;;;;3.22;2.00;;;10.50;96.70;;;;;;5047186;28;20114;-78
2022/01/22 15:09:50;;;;;;;3.58;2.20;;;10.50;96.70;;;;;;5041608;28;20075;-79
2022/01/22 15:12:20;;;;;;;4.45;2.40;;;10.50;96.70;;;;;;5045315;28;20048;-79
2022/01/22 15:14:50;;;;;;;4.40;2.45;;;10.50;96.70;;;;;;5039430;28;20095;-78
2022/01/22 15:19:50;;;;;;;5.18;2.65;;;10.40;96.70;;;;;;5055227;28;20099;-78
2022/01/22 15:22:26;;;;;;;4.65;2.60;;;10.30;96.70;;;;;;5050932;28;20045;-77
2022/01/22 15:24:54;;;;;;;5.00;2.20;;;10.30;96.70;;;;;;5041976;28;20053;-78
2022/01/22 15:27:23;;;;;;;5.07;3.03;;;10.20;96.70;;;;;;5047771;28;20036;-78
2022/01/22 15:30:00;;;;;;;8.35;5.70;;;10.20;96.70;;;;;;5041971;28;20049;-79
2022/01/22 15:35:08;;;;;;;5.43;3.65;;;10.10;96.70;;;;;;5040877;28;20048;-77